Time;durP1;ratioP1;P1;durP2;ratioP2;P2;SDS_P1;SDS_P2;PMS_P1;PMS_P2;Temp;Humidity;BMP_temperature;BMP_pressure;BME280_temperature;BME280_humidity;BME280_pressure;Samples;Min_cycle;Max_cycle;Signal;HPM_P1;HPM_P2
2022/06/18 00:00:22;;;;;;;;;;;;;;;28.85;36.23;100813.53;4912676;29;1119;-31
2022/06/18 00:02:48;;;;;;;;;;;;;;;28.88;35.91;100814.19;4939995;29;1072;-31
2022/06/18 00:05:14;;;;;;;;;;;;;;;28.84;36.12;100817.28;4935954;29;917;-28
2022/06/18 00:07:40;;;;;;;;;;;;;;;28.83;36.16;100815.59;4930354;29;1044;-28
2022/06/18 00:10:06;;;;;;;;;;;;;;;28.72;36.54;100816.97;4921187;29;1072;-33
2022/06/18 00:15:25;;;;;;;;;;;;;;;28.72;36.87;100806.13;4940504;29;949;-28
2022/06/18 00:17:50;;;;;;;;;;;;;;;28.81;36.56;100812.25;4932389;29;1048;-32
2022/06/18 00:20:16;;;;;;;;;;;;;;;28.88;36.52;100809.59;4940190;29;965;-29
2022/06/18 00:22:42;;;;;;;;;;;;;;;28.83;36.84;100812.03;4940804;29;1964;-29
2022/06/18 00:25:19;;;;;;;;;;;;;;;28.83;36.82;100804.78;4917742;29;1535;-29
2022/06/18 00:27:45;;;;;;;;;;;;;;;28.81;36.67;100806.00;4939995;29;1171;-30
2022/06/18 00:30:11;;;;;;;;;;;;;;;28.88;36.64;100798.78;4935059;29;919;-28
2022/06/18 00:32:37;;;;;;;;;;;;;;;28.85;36.71;100791.88;4940500;29;1198;-29
2022/06/18 00:35:02;;;;;;;;;;;;;;;28.85;36.80;100797.31;4940365;29;948;-29
2022/06/18 00:37:27;;;;;;;;;;;;;;;28.90;36.52;100804.84;4939628;29;1025;-28
2022/06/18 00:39:53;;;;;;;;;;;;;;;28.84;36.46;100806.44;4940261;29;1016;-32
2022/06/18 00:42:22;;;;;;;;;;;;;;;28.83;36.78;100809.34;4931413;29;1954;-31
2022/06/18 00:44:53;;;;;;;;;;;;;;;28.83;36.43;100803.94;4936957;29;972;-29
2022/06/18 00:47:27;;;;;;;;;;;;;;;28.87;36.65;100802.53;4917110;29;985;-29
2022/06/18 00:50:04;;;;;;;;;;;;;;;28.80;36.62;100797.03;4917711;29;989;-31
2022/06/18 00:52:49;;;;;;;;;;;;;;;28.85;36.50;100788.34;4934039;29;1179;-31
2022/06/18 00:55:19;;;;;;;;;;;;;;;28.90;36.50;100785.88;4909640;29;859;-29
2022/06/18 00:57:44;;;;;;;;;;;;;;;28.91;36.61;100784.03;4935087;29;983;-32
2022/06/18 01:00:13;;;;;;;;;;;;;;;28.94;36.30;100786.34;4939839;29;1214;-33
2022/06/18 01:02:39;;;;;;;;;;;;;;;28.95;36.38;100791.56;4939780;29;1981;-29
2022/06/18 01:05:24;;;;;;;;;;;;;;;28.92;36.19;100800.06;4939461;29;1060;-32
2022/06/18 01:07:54;;;;;;;;;;;;;;;28.93;36.39;100792.78;4936933;29;870;-32
2022/06/18 01:10:21;;;;;;;;;;;;;;;28.92;36.51;100788.41;4921126;29;939;-30
2022/06/18 01:12:46;;;;;;;;;;;;;;;28.93;36.16;100787.34;4931668;29;1118;-29
2022/06/18 01:15:11;;;;;;;;;;;;;;;28.95;36.23;100791.56;4939800;29;988;-30
2022/06/18 01:17:37;;;;;;;;;;;;;;;28.94;36.27;100797.16;4939810;29;1071;-30
2022/06/18 01:20:04;;;;;;;;;;;;;;;28.90;36.70;100796.72;4931731;29;965;-32
2022/06/18 01:22:52;;;;;;;;;;;;;;;28.84;36.70;100790.19;4939525;29;1997;-31
2022/06/18 01:25:17;;;;;;;;;;;;;;;28.83;36.92;100791.25;4914908;29;949;-33
2022/06/18 01:27:42;;;;;;;;;;;;;;;28.86;36.54;100784.63;4938382;29;1128;-28
2022/06/18 01:30:08;;;;;;;;;;;;;;;28.86;36.59;100784.63;4928572;29;1008;-32
2022/06/18 01:32:34;;;;;;;;;;;;;;;28.91;36.66;100792.97;4936377;29;925;-33
2022/06/18 01:34:59;;;;;;;;;;;;;;;28.91;36.60;100808.41;4930928;29;953;-29
2022/06/18 01:37:25;;;;;;;;;;;;;;;28.85;36.77;100799.16;4918980;29;966;-32
2022/06/18 01:39:51;;;;;;;;;;;;;;;28.90;36.61;100801.28;4939562;29;976;-28
2022/06/18 01:42:22;;;;;;;;;;;;;;;28.95;36.48;100810.50;4938877;29;1960;-32
2022/06/18 01:44:51;;;;;;;;;;;;;;;28.86;36.87;100803.56;4926245;29;1017;-30
2022/06/18 01:47:17;;;;;;;;;;;;;;;28.85;36.84;100810.00;4934380;29;1028;-32
2022/06/18 01:50:05;;;;;;;;;;;;;;;28.88;36.63;100806.06;4938446;29;1175;-31
2022/06/18 01:52:36;;;;;;;;;;;;;;;28.88;36.63;100812.31;4928057;29;1326;-28
2022/06/18 01:55:02;;;;;;;;;;;;;;;28.84;36.72;100800.22;4919177;29;1119;-30
2022/06/18 01:57:29;;;;;;;;;;;;;;;28.86;36.70;100806.28;4920362;29;1527;-33
2022/06/18 01:59:56;;;;;;;;;;;;;;;28.84;36.82;100806.44;4925469;29;1119;-31
2022/06/18 02:02:21;;;;;;;;;;;;;;;28.90;36.60;100807.56;4909561;29;1914;-29
2022/06/18 02:04:46;;;;;;;;;;;;;;;28.91;36.76;100811.91;4918450;29;973;-32
2022/06/18 02:07:13;;;;;;;;;;;;;;;28.95;36.33;100813.22;4930876;29;1055;-32
2022/06/18 02:09:44;;;;;;;;;;;;;;;28.90;36.40;100810.25;4910496;29;973;-29
2022/06/18 02:12:10;;;;;;;;;;;;;;;28.84;36.95;100813.75;4937823;29;969;-32
2022/06/18 02:14:36;;;;;;;;;;;;;;;28.81;36.74;100808.72;4909106;29;949;-30
2022/06/18 02:17:02;;;;;;;;;;;;;;;28.84;36.65;100802.91;4921154;29;1466;-30
2022/06/18 02:19:27;;;;;;;;;;;;;;;28.85;36.86;100801.88;4938372;29;1063;-30
2022/06/18 02:21:54;;;;;;;;;;;;;;;28.90;36.85;100798.56;4938496;29;1907;-34
2022/06/18 02:24:19;;;;;;;;;;;;;;;28.94;36.57;100808.00;4932446;29;1214;-30
2022/06/18 02:26:45;;;;;;;;;;;;;;;28.88;36.51;100806.06;4938578;29;941;-30
2022/06/18 02:29:18;;;;;;;;;;;;;;;28.88;36.73;100806.06;4939062;29;1080;-33
2022/06/18 02:31:45;;;;;;;;;;;;;;;28.90;36.37;100801.28;4911104;29;938;-33
2022/06/18 02:34:11;;;;;;;;;;;;;;;28.89;36.21;100808.59;4937146;29;953;-30
2022/06/18 02:36:37;;;;;;;;;;;;;;;28.85;36.31;100808.13;4937056;29;926;-28
2022/06/18 02:39:41;;;;;;;;;;;;;;;28.88;36.52;100808.78;4938560;29;996;-30
2022/06/18 02:42:06;;;;;;;;;;;;;;;28.89;36.41;100811.28;4875956;29;1903;-33
2022/06/18 02:44:31;;;;;;;;;;;;;;;28.90;36.35;100817.53;4880113;29;1112;-31
2022/06/18 02:46:58;;;;;;;;;;;;;;;28.93;36.36;100820.69;4883784;29;1270;-31
2022/06/18 02:49:24;;;;;;;;;;;;;;;28.85;36.34;100831.66;4932952;29;1151;-31
2022/06/18 02:51:49;;;;;;;;;;;;;;;28.87;36.24;100816.06;4914313;29;1090;-30
2022/06/18 02:54:14;;;;;;;;;;;;;;;28.83;36.63;100828.28;4926335;28;1943;-28
2022/06/18 02:56:40;;;;;;;;;;;;;;;28.83;36.32;100821.03;4940742;29;2090;-28
2022/06/18 02:59:06;;;;;;;;;;;;;;;28.50;36.56;100826.06;4943768;29;1890;-29
2022/06/18 03:01:32;;;;;;;;;;;;;;;28.16;33.92;100812.13;4932278;29;2055;-28
2022/06/18 03:03:58;;;;;;;;;;;;;;;28.10;34.27;100809.16;4937080;29;1344;-31
2022/06/18 03:06:24;;;;;;;;;;;;;;;27.85;34.57;100814.00;4937754;29;937;-30
2022/06/18 03:08:49;;;;;;;;;;;;;;;27.84;34.52;100820.44;4938506;29;1067;-28
2022/06/18 03:13:59;;;;;;;;;;;;;;;27.80;34.81;100808.31;4927432;29;1000;-27
2022/06/18 03:16:24;;;;;;;;;;;;;;;27.58;35.00;100805.47;4933696;29;1103;-27
2022/06/18 03:18:50;;;;;;;;;;;;;;;27.53;35.14;100811.44;4937050;29;1187;-29
2022/06/18 03:21:18;;;;;;;;;;;;;;;27.51;35.21;100806.22;4937559;29;1969;-28
2022/06/18 03:23:44;;;;;;;;;;;;;;;27.59;35.49;100809.88;4937634;29;1273;-30
2022/06/18 03:26:09;;;;;;;;;;;;;;;27.57;35.11;100815.47;4937486;29;1301;-30
2022/06/18 03:28:35;;;;;;;;;;;;;;;27.57;35.49;100815.47;4937674;29;1131;-27
2022/06/18 03:31:00;;;;;;;;;;;;;;;27.37;35.83;100812.44;4934143;29;2009;-29
2022/06/18 03:33:25;;;;;;;;;;;;;;;27.35;36.17;100818.03;4937502;29;1198;-29
2022/06/18 03:35:51;;;;;;;;;;;;;;;27.26;36.01;100819.97;4932157;29;980;-27
2022/06/18 03:38:16;;;;;;;;;;;;;;;27.25;36.41;100822.84;4935267;29;1049;-32
2022/06/18 03:40:43;;;;;;;;;;;;;;;27.35;36.07;100815.34;4933557;29;1894;-29
2022/06/18 03:43:09;;;;;;;;;;;;;;;25.22;40.91;100815.88;4938152;29;1099;-28
2022/06/18 03:45:44;;;;;;;;;;;;;;;25.64;39.89;100811.34;4938004;29;1115;-30
2022/06/18 03:48:29;;;;;;;;;;;;;;;24.04;43.69;100809.31;4911021;29;962;-30
2022/06/18 03:50:54;;;;;;;;;;;;;;;24.13;43.98;100817.44;4932239;29;1096;-28
2022/06/18 03:53:19;;;;;;;;;;;;;;;25.17;41.67;100813.69;4933867;29;1222;-29
2022/06/18 03:55:45;;;;;;;;;;;;;;;23.76;45.68;100808.66;4941892;29;1048;-29
2022/06/18 03:58:10;;;;;;;;;;;;;;;23.85;45.52;100827.38;4939863;29;1147;-29
2022/06/18 04:00:35;;;;;;;;;;;;;;;25.87;41.11;100814.16;4940195;29;1970;-30
2022/06/18 04:03:01;;;;;;;;;;;;;;;26.71;39.21;100830.78;4927062;29;1012;-32
2022/06/18 04:05:26;;;;;;;;;;;;;;;27.04;38.50;100821.69;4933098;29;1210;-30
2022/06/18 04:07:51;;;;;;;;;;;;;;;27.06;38.08;100816.09;4926792;29;1190;-31
2022/06/18 04:10:18;;;;;;;;;;;;;;;27.28;37.68;100818.97;4923878;29;969;-29
2022/06/18 04:12:43;;;;;;;;;;;;;;;27.37;37.36;100812.44;4935897;29;1132;-29
2022/06/18 04:15:08;;;;;;;;;;;;;;;27.30;37.63;100806.09;4928843;29;968;-30
2022/06/18 04:17:34;;;;;;;;;;;;;;;27.34;37.47;100788.50;4938969;29;945;-29
2022/06/18 04:19:59;;;;;;;;;;;;;;;27.60;37.16;100809.69;4940475;29;1001;-31
2022/06/18 04:22:25;;;;;;;;;;;;;;;27.62;36.70;100810.34;4927415;29;1903;-29
2022/06/18 04:24:51;;;;;;;;;;;;;;;27.54;36.79;100794.22;4927788;29;1067;-31
2022/06/18 04:27:16;;;;;;;;;;;;;;;27.71;36.61;100819.22;4927516;29;1017;-29
2022/06/18 04:29:41;;;;;;;;;;;;;;;27.71;36.39;100823.81;4924919;29;997;-30
2022/06/18 04:32:07;;;;;;;;;;;;;;;27.70;36.87;100825.66;4925717;29;945;-29
2022/06/18 04:34:32;;;;;;;;;;;;;;;27.75;36.47;100844.03;4923763;29;1079;-32
2022/06/18 04:36:57;;;;;;;;;;;;;;;27.83;36.63;100843.06;4928612;29;1180;-30
2022/06/18 04:39:24;;;;;;;;;;;;;;;27.87;36.55;100841.69;4927538;29;1035;-34
2022/06/18 04:41:49;;;;;;;;;;;;;;;27.94;36.84;100849.91;4929892;29;1883;-30
2022/06/18 04:44:15;;;;;;;;;;;;;;;28.03;36.69;100853.38;4934081;29;823;-29
2022/06/18 04:46:40;;;;;;;;;;;;;;;27.98;36.45;100856.59;4926340;29;981;-32
2022/06/18 04:49:05;;;;;;;;;;;;;;;27.97;36.63;100861.19;4929159;29;1199;-30
2022/06/18 04:51:31;;;;;;;;;;;;;;;28.01;36.85;100858.13;4934261;29;1189;-29
2022/06/18 04:53:56;;;;;;;;;;;;;;;28.03;36.74;100864.19;4928160;29;1225;-29
2022/06/18 04:56:21;;;;;;;;;;;;;;;28.01;36.64;100858.13;4922915;29;1009;-28
2022/06/18 04:58:47;;;;;;;;;;;;;;;28.01;36.69;100866.22;4927642;29;1128;-28
2022/06/18 05:01:19;;;;;;;;;;;;;;;28.05;36.57;100872.94;4939619;29;1906;-28
2022/06/18 05:03:44;;;;;;;;;;;;;;;28.05;36.96;100881.88;4937616;29;1119;-31
2022/06/18 05:06:10;;;;;;;;;;;;;;;28.08;36.79;100884.22;4924246;29;1027;-31
2022/06/18 05:08:35;;;;;;;;;;;;;;;28.09;36.55;100887.75;4926131;29;1159;-29
2022/06/18 05:11:01;;;;;;;;;;;;;;;28.15;36.92;100908.66;4922484;29;1044;-31
2022/06/18 05:13:26;;;;;;;;;;;;;;;28.14;36.98;100893.47;4921767;29;1225;-28
2022/06/18 05:15:52;;;;;;;;;;;;;;;28.18;37.09;100900.16;4926965;29;1419;-30
2022/06/18 05:18:18;;;;;;;;;;;;;;;28.19;36.88;100904.56;4927002;29;985;-28
2022/06/18 05:20:43;;;;;;;;;;;;;;;28.20;37.08;100905.38;4938130;29;1968;-30
2022/06/18 05:23:11;;;;;;;;;;;;;;;28.30;37.09;100905.94;4930748;29;945;-31
2022/06/18 05:25:36;;;;;;;;;;;;;;;28.24;37.13;100904.00;4910709;29;1057;-30
2022/06/18 05:28:02;;;;;;;;;;;;;;;28.26;37.25;100901.91;4929770;29;1419;-32
2022/06/18 05:30:28;;;;;;;;;;;;;;;28.27;37.19;100900.91;4939090;29;1056;-29
2022/06/18 05:32:53;;;;;;;;;;;;;;;28.34;37.13;100898.31;4928289;29;996;-33
2022/06/18 05:35:18;;;;;;;;;;;;;;;28.42;36.64;100897.38;4931917;29;866;-30
2022/06/18 05:37:44;;;;;;;;;;;;;;;28.35;37.35;100900.84;4926521;29;1142;-32
2022/06/18 05:40:10;;;;;;;;;;;;;;;28.34;37.49;100904.56;4929225;29;993;-29
2022/06/18 05:42:35;;;;;;;;;;;;;;;28.33;37.63;100896.63;4928270;29;1969;-28
2022/06/18 05:45:01;;;;;;;;;;;;;;;28.43;37.32;100905.31;4930904;29;961;-31
2022/06/18 05:47:27;;;;;;;;;;;;;;;28.50;37.14;100912.66;4936364;29;992;-31
2022/06/18 05:49:52;;;;;;;;;;;;;;;28.44;37.49;100912.41;4933750;29;1020;-31
2022/06/18 05:52:18;;;;;;;;;;;;;;;28.46;37.23;100915.75;4927890;29;1643;-31
2022/06/18 05:54:44;;;;;;;;;;;;;;;28.44;37.02;100916.97;4939034;29;1387;-33
2022/06/18 05:57:09;;;;;;;;;;;;;;;28.52;37.08;100922.28;4939323;29;1119;-33
2022/06/18 05:59:34;;;;;;;;;;;;;;;28.47;37.03;100930.97;4930235;29;1147;-30
2022/06/18 06:02:00;;;;;;;;;;;;;;;28.51;37.52;100930.59;4936830;29;1982;-31
2022/06/18 06:04:25;;;;;;;;;;;;;;;28.55;36.93;100935.44;4938329;29;952;-30
2022/06/18 06:06:51;;;;;;;;;;;;;;;28.54;36.93;100932.91;4938170;29;1232;-28
2022/06/18 06:11:28;;;;;;;;;;;;;;;28.58;37.14;100934.22;4939150;29;1143;-31
2022/06/18 06:12:01;;;;;;;;;;;;;;;28.59;36.69;100933.19;4937920;29;1008;-32
2022/06/18 06:14:27;;;;;;;;;;;;;;;28.56;36.98;100934.41;4937429;29;1263;-29
2022/06/18 06:16:52;;;;;;;;;;;;;;;28.57;36.80;100933.38;4936195;29;1234;-31
2022/06/18 06:19:17;;;;;;;;;;;;;;;28.66;36.83;100938.69;4938762;29;1110;-28
2022/06/18 06:21:43;;;;;;;;;;;;;;;28.57;36.77;100929.84;4931778;29;1903;-28
2022/06/18 06:24:08;;;;;;;;;;;;;;;28.63;36.74;100928.25;4938782;29;976;-31
2022/06/18 06:26:33;;;;;;;;;;;;;;;28.65;36.61;100929.72;4929628;29;1057;-31
2022/06/18 06:29:00;;;;;;;;;;;;;;;28.61;36.75;100933.84;4908107;29;1021;-31
2022/06/18 06:31:26;;;;;;;;;;;;;;;28.67;36.65;100943.91;4937794;29;958;-30
2022/06/18 06:33:51;;;;;;;;;;;;;;;28.71;36.79;100933.56;4930071;29;957;-31
2022/06/18 06:36:17;;;;;;;;;;;;;;;28.69;36.62;100941.88;4924998;29;996;-27
2022/06/18 06:38:42;;;;;;;;;;;;;;;28.69;36.82;100946.44;4933711;29;1170;-28
2022/06/18 06:41:12;;;;;;;;;;;;;;;28.69;36.53;100944.56;4929300;29;1899;-28
2022/06/18 06:43:37;;;;;;;;;;;;;;;28.72;36.73;100948.75;4908225;29;1210;-30
2022/06/18 06:46:02;;;;;;;;;;;;;;;28.70;36.77;100954.38;4932472;29;1151;-31
2022/06/18 06:48:28;;;;;;;;;;;;;;;28.69;36.80;100965.38;4933450;29;1037;-31
2022/06/18 06:50:53;;;;;;;;;;;;;;;28.66;36.73;100961.16;4932428;29;1073;-28
2022/06/18 06:53:19;;;;;;;;;;;;;;;28.65;36.86;100964.91;4931334;29;1084;-29
2022/06/18 06:58:28;;;;;;;;;;;;;;;28.64;37.10;100965.94;4935478;29;1095;-30
2022/06/18 07:00:54;;;;;;;;;;;;;;;28.66;37.52;100973.88;4938022;29;1899;-30
2022/06/18 07:03:21;;;;;;;;;;;;;;;28.66;37.27;100979.28;4938331;29;973;-31
2022/06/18 07:05:46;;;;;;;;;;;;;;;28.70;37.56;100978.72;4932103;29;988;-32
2022/06/18 07:08:12;;;;;;;;;;;;;;;28.75;37.41;100982.72;4931859;29;1023;-35
2022/06/18 07:10:37;;;;;;;;;;;;;;;28.83;36.98;100982.63;4934050;29;1063;-30
2022/06/18 07:13:02;;;;;;;;;;;;;;;28.82;37.10;100984.50;4938203;29;1157;-30
2022/06/18 07:15:28;;;;;;;;;;;;;;;28.83;37.13;100991.59;4937753;29;1084;-29
2022/06/18 07:17:53;;;;;;;;;;;;;;;28.82;36.95;100986.38;4928600;29;1052;-31
2022/06/18 07:20:19;;;;;;;;;;;;;;;28.73;36.90;100991.88;4934613;29;1012;-33
2022/06/18 07:22:44;;;;;;;;;;;;;;;28.77;37.15;100992.34;4929577;29;1964;-30
2022/06/18 07:25:10;;;;;;;;;;;;;;;28.76;36.75;100987.13;4938519;29;984;-30
2022/06/18 07:27:35;;;;;;;;;;;;;;;28.75;37.14;100997.09;4940550;29;1026;-28
2022/06/18 07:30:01;;;;;;;;;;;;;;;28.75;37.11;100996.25;4936095;29;889;-30
2022/06/18 07:32:26;;;;;;;;;;;;;;;28.67;36.18;100991.78;4940727;29;1028;-32
2022/06/18 07:34:53;;;;;;;;;;;;;;;28.73;36.44;100994.59;4939537;29;1000;-30
2022/06/18 07:37:19;;;;;;;;;;;;;;;28.72;36.08;100998.34;4940843;29;1104;-28
2022/06/18 07:39:45;;;;;;;;;;;;;;;28.80;36.46;101000.09;4941161;29;1254;-28
2022/06/18 07:42:10;;;;;;;;;;;;;;;28.82;36.58;101000.75;4938661;29;1906;-31
2022/06/18 07:44:35;;;;;;;;;;;;;;;28.80;36.47;101001.94;4933232;29;1127;-32
2022/06/18 07:47:04;;;;;;;;;;;;;;;28.80;36.79;101000.09;4940107;29;1135;-33
2022/06/18 07:49:29;;;;;;;;;;;;;;;28.81;36.64;101000.94;4941294;29;992;-30
2022/06/18 07:51:54;;;;;;;;;;;;;;;28.75;36.81;101001.66;4935806;29;1079;-31
2022/06/18 07:54:20;;;;;;;;;;;;;;;28.81;36.74;100998.22;4937459;29;1250;-28
2022/06/18 07:56:45;;;;;;;;;;;;;;;28.82;36.54;100999.91;4938743;29;1246;-31
2022/06/18 07:59:12;;;;;;;;;;;;;;;28.85;36.27;100988.69;4934121;29;1254;-30
2022/06/18 08:01:38;;;;;;;;;;;;;;;28.73;35.51;100994.59;4934301;29;1915;-35
2022/06/18 08:04:04;;;;;;;;;;;;;;;28.81;35.77;100993.63;4935643;29;1135;-28
2022/06/18 08:06:29;;;;;;;;;;;;;;;28.76;35.57;100992.53;4939507;29;882;-30
2022/06/18 08:08:55;;;;;;;;;;;;;;;28.83;36.35;100985.31;4939117;29;1207;-29
2022/06/18 08:11:20;;;;;;;;;;;;;;;28.89;36.49;100987.28;4940975;29;1195;-29
2022/06/18 08:13:45;;;;;;;;;;;;;;;28.83;37.39;100991.59;4938751;29;1112;-28
2022/06/18 08:16:13;;;;;;;;;;;;;;;28.42;34.50;100983.97;4937841;29;1055;-29
2022/06/18 08:18:38;;;;;;;;;;;;;;;27.85;34.45;100981.59;4940345;29;1488;-32
2022/06/18 08:21:05;;;;;;;;;;;;;;;27.82;36.03;100992.78;4938645;29;1906;-36
2022/06/18 08:23:30;;;;;;;;;;;;;;;28.20;35.37;100991.94;4939175;29;973;-31
2022/06/18 08:25:56;;;;;;;;;;;;;;;28.48;35.33;100991.31;4917919;29;1227;-27
2022/06/18 08:28:21;;;;;;;;;;;;;;;28.55;35.75;100984.16;4914820;29;1227;-33
2022/06/18 08:30:46;;;;;;;;;;;;;;;28.68;34.94;100980.78;4917715;29;1195;-31
2022/06/18 08:33:12;;;;;;;;;;;;;;;28.79;35.15;100975.91;4917831;29;1270;-30
2022/06/18 08:35:37;;;;;;;;;;;;;;;28.90;35.39;100980.00;4930261;29;1210;-27
2022/06/18 08:38:05;;;;;;;;;;;;;;;28.98;35.27;100979.09;4937398;29;953;-28
2022/06/18 08:40:47;;;;;;;;;;;;;;;28.94;35.42;100982.16;4940022;29;1250;-27
2022/06/18 08:43:30;;;;;;;;;;;;;;;29.01;35.60;100974.13;4919529;29;1139;-28
2022/06/18 08:46:14;;;;;;;;;;;;;;;28.93;35.50;100980.47;4927689;29;1004;-30
2022/06/18 08:48:40;;;;;;;;;;;;;;;29.04;35.27;100973.75;4929353;29;941;-31
2022/06/18 08:51:16;;;;;;;;;;;;;;;29.14;35.23;100969.88;4937333;29;1245;-28
2022/06/18 08:53:44;;;;;;;;;;;;;;;29.17;35.01;100969.50;4928593;29;969;-29
2022/06/18 08:56:27;;;;;;;;;;;;;;;29.18;35.04;100968.47;4940317;29;1055;-30
2022/06/18 08:59:14;;;;;;;;;;;;;;;29.23;34.73;100962.50;4926348;29;1126;-28
2022/06/18 09:01:41;;;;;;;;;;;;;;;29.29;34.71;100969.84;4918884;29;1915;-28
2022/06/18 09:04:07;;;;;;;;;;;;;;;29.31;34.73;100965.91;4940089;29;1183;-27
2022/06/18 09:06:32;;;;;;;;;;;;;;;29.34;34.77;100968.22;4935965;29;1000;-29
2022/06/18 09:09:16;;;;;;;;;;;;;;;29.36;34.68;100962.63;4939635;29;1048;-28
2022/06/18 09:11:44;;;;;;;;;;;;;;;29.29;35.15;100967.97;4933448;29;1241;-31
2022/06/18 09:14:09;;;;;;;;;;;;;;;29.21;35.35;100968.09;4939571;29;949;-32
2022/06/18 09:16:40;;;;;;;;;;;;;;;29.30;35.17;100969.66;4940030;29;965;-32
2022/06/18 09:19:07;;;;;;;;;;;;;;;29.33;35.05;100977.38;4912321;29;1009;-30
2022/06/18 09:21:42;;;;;;;;;;;;;;;29.45;34.85;100982.28;4925976;29;1967;-28
2022/06/18 09:24:08;;;;;;;;;;;;;;;29.51;34.87;100969.84;4912841;29;1110;-30
2022/06/18 09:26:35;;;;;;;;;;;;;;;29.50;35.25;100979.00;4917627;29;1131;-31
2022/06/18 09:29:03;;;;;;;;;;;;;;;29.51;35.06;100970.66;4939681;29;1178;-31
2022/06/18 09:31:32;;;;;;;;;;;;;;;29.50;34.46;100981.69;4939421;29;1031;-28
2022/06/18 09:33:59;;;;;;;;;;;;;;;29.60;34.82;100976.84;4919076;29;1147;-28
2022/06/18 09:36:27;;;;;;;;;;;;;;;29.49;34.89;100972.75;4911613;29;993;-28
2022/06/18 09:38:56;;;;;;;;;;;;;;;29.30;34.64;100964.22;4937314;29;1032;-35
2022/06/18 09:41:22;;;;;;;;;;;;;;;29.20;35.27;100967.25;4939039;29;1907;-32
2022/06/18 09:43:49;;;;;;;;;;;;;;;29.26;35.50;100967.53;4939270;29;1192;-31
2022/06/18 09:46:21;;;;;;;;;;;;;;;29.29;35.35;100969.84;4939370;29;1016;-31
2022/06/18 09:48:46;;;;;;;;;;;;;;;29.31;35.40;100974.03;4917344;29;1136;-29
2022/06/18 09:51:14;;;;;;;;;;;;;;;29.33;35.36;100971.97;4938534;29;1092;-33
2022/06/18 09:53:40;;;;;;;;;;;;;;;29.36;35.41;100976.19;4916173;29;1065;-33
2022/06/18 09:56:08;;;;;;;;;;;;;;;29.28;35.08;100977.13;4938951;29;1024;-30
2022/06/18 09:58:54;;;;;;;;;;;;;;;29.20;35.57;100974.53;4938872;29;973;-30
2022/06/18 10:01:31;;;;;;;;;;;;;;;29.04;35.65;100979.19;4915971;29;1935;-28
2022/06/18 10:06:53;;;;;;;;;;;;;;;29.08;35.71;100972.31;4915665;29;1177;-27
2022/06/18 10:09:35;;;;;;;;;;;;;;;29.27;35.44;100980.88;4912655;29;1040;-30
2022/06/18 10:12:01;;;;;;;;;;;;;;;29.08;35.61;100975.03;4910426;29;1032;-31
2022/06/18 10:14:26;;;;;;;;;;;;;;;29.20;35.68;100961.84;4921527;29;1206;-34
2022/06/18 10:16:55;;;;;;;;;;;;;;;29.25;35.78;100966.66;4926626;29;1000;-30
2022/06/18 10:19:20;;;;;;;;;;;;;;;29.35;35.74;100971.78;4932724;29;1036;-31
2022/06/18 10:22:05;;;;;;;;;;;;;;;29.23;36.10;100979.56;4930892;29;1895;-29
2022/06/18 10:24:31;;;;;;;;;;;;;;;29.33;35.57;100980.09;4915673;29;1040;-29
2022/06/18 10:26:56;;;;;;;;;;;;;;;28.79;33.88;100973.22;4936116;29;1199;-32
2022/06/18 10:29:28;;;;;;;;;;;;;;;28.63;35.22;100974.25;4930497;29;1024;-28
2022/06/18 10:31:59;;;;;;;;;;;;;;;28.70;34.13;100970.59;4913383;29;1160;-28
2022/06/18 10:34:31;;;;;;;;;;;;;;;28.77;34.82;100980.66;4938238;29;969;-30
2022/06/18 10:37:00;;;;;;;;;;;;;;;28.88;35.03;100976.66;4918442;29;1036;-28
2022/06/18 10:39:28;;;;;;;;;;;;;;;28.90;35.04;100978.13;4938533;29;1035;-29
2022/06/18 10:42:12;;;;;;;;;;;;;;;28.53;33.52;100972.66;4935073;29;1902;-32
2022/06/18 10:44:37;;;;;;;;;;;;;;;28.54;34.49;100971.66;4937976;29;989;-28
2022/06/18 10:47:21;;;;;;;;;;;;;;;28.75;35.50;100961.91;4938777;29;1083;-30
2022/06/18 10:49:47;;;;;;;;;;;;;;;28.83;35.76;100969.94;4932519;29;1024;-30
2022/06/18 10:52:19;;;;;;;;;;;;;;;28.69;35.51;100973.50;4937706;29;1067;-30
2022/06/18 10:54:44;;;;;;;;;;;;;;;28.82;35.12;100976.38;4938386;29;961;-28
2022/06/18 10:57:19;;;;;;;;;;;;;;;28.94;34.87;100984.00;4917267;29;950;-29
2022/06/18 10:59:44;;;;;;;;;;;;;;;28.77;35.38;100981.53;4913380;29;1111;-27
2022/06/18 11:02:12;;;;;;;;;;;;;;;28.87;35.21;100991.22;4937368;29;1998;-29
2022/06/18 11:04:38;;;;;;;;;;;;;;;28.83;35.25;100997.00;4934622;29;1000;-31
2022/06/18 11:07:04;;;;;;;;;;;;;;;28.91;34.98;100989.81;4941805;29;965;-28
2022/06/18 11:09:30;;;;;;;;;;;;;;;28.92;34.85;100994.19;4942228;29;1039;-31
2022/06/18 11:11:59;;;;;;;;;;;;;;;28.98;34.83;100987.22;4942014;29;985;-27
2022/06/18 11:14:25;;;;;;;;;;;;;;;28.88;34.97;100987.50;4942062;29;1123;-30
2022/06/18 11:16:51;;;;;;;;;;;;;;;28.92;35.04;100994.19;4935219;29;985;-29
2022/06/18 11:19:30;;;;;;;;;;;;;;;28.96;34.94;100999.03;4928531;29;1160;-29
2022/06/18 11:21:55;;;;;;;;;;;;;;;28.92;35.26;100994.19;4933542;29;1915;-28
2022/06/18 11:24:20;;;;;;;;;;;;;;;28.95;35.13;101007.34;4938842;29;1131;-32
2022/06/18 11:26:48;;;;;;;;;;;;;;;28.97;34.84;101002.63;4941342;29;1040;-28
2022/06/18 11:29:40;;;;;;;;;;;;;;;29.05;34.88;100999.81;4939324;29;1203;-32
2022/06/18 11:32:10;;;;;;;;;;;;;;;29.08;34.97;101002.13;4933158;29;1182;-32
2022/06/18 11:34:36;;;;;;;;;;;;;;;29.02;36.75;101002.03;4914991;29;1024;-29
2022/06/18 11:37:10;;;;;;;;;;;;;;;28.90;36.72;101007.91;4931897;29;981;-30
2022/06/18 11:39:36;;;;;;;;;;;;;;;29.12;35.89;101015.28;4941873;29;1040;-28
2022/06/18 11:42:14;;;;;;;;;;;;;;;29.23;35.69;101008.53;4941026;29;1915;-30
2022/06/18 11:44:41;;;;;;;;;;;;;;;29.20;35.85;101018.72;4926985;29;895;-28
2022/06/18 11:47:20;;;;;;;;;;;;;;;29.30;35.47;101020.28;4938397;29;1194;-30
2022/06/18 11:49:48;;;;;;;;;;;;;;;29.30;35.53;101023.84;4917084;29;1044;-28
2022/06/18 11:52:17;;;;;;;;;;;;;;;29.36;35.57;101021.41;4940079;29;1044;-30
2022/06/18 11:55:05;;;;;;;;;;;;;;;29.32;35.87;101018.22;4941504;29;957;-28
2022/06/18 11:57:35;;;;;;;;;;;;;;;27.77;35.06;101020.38;4913033;29;1301;-28
2022/06/18 12:00:20;;;;;;;;;;;;;;;26.98;35.29;101012.16;4940820;29;1072;-27
2022/06/18 12:02:54;;;;;;;;;;;;;;;27.22;34.86;101015.81;4924644;29;1919;-34
2022/06/18 12:05:31;;;;;;;;;;;;;;;27.97;34.20;101018.00;4936649;29;1249;-31
2022/06/18 12:07:57;;;;;;;;;;;;;;;28.37;34.66;101017.00;4923713;29;1091;-31
2022/06/18 12:10:27;;;;;;;;;;;;;;;28.67;34.46;101019.72;4920174;29;1071;-32
2022/06/18 12:12:52;;;;;;;;;;;;;;;28.86;34.12;101020.16;4940439;29;956;-32
2022/06/18 12:15:27;;;;;;;;;;;;;;;28.91;34.10;101022.31;4941343;29;941;-29
2022/06/18 12:18:11;;;;;;;;;;;;;;;28.98;34.10;101023.25;4912936;29;1579;-32
2022/06/18 12:20:41;;;;;;;;;;;;;;;29.03;34.59;101031.63;4939222;29;1079;-29
2022/06/18 12:23:10;;;;;;;;;;;;;;;29.11;34.17;101027.16;4939782;29;1902;-31
2022/06/18 12:25:37;;;;;;;;;;;;;;;29.15;34.32;101039.28;4927514;29;945;-29
2022/06/18 12:28:09;;;;;;;;;;;;;;;29.13;34.22;101035.94;4933502;29;957;-29
2022/06/18 12:30:36;;;;;;;;;;;;;;;29.11;34.19;101043.41;4932016;29;1056;-34
2022/06/18 12:33:12;;;;;;;;;;;;;;;29.15;34.32;101050.97;4911561;29;1005;-31
2022/06/18 12:35:56;;;;;;;;;;;;;;;29.08;34.62;101048.16;4930231;29;1119;-29
2022/06/18 12:38:34;;;;;;;;;;;;;;;29.16;34.61;101041.78;4925361;29;981;-32
2022/06/18 12:41:02;;;;;;;;;;;;;;;29.21;34.75;101046.66;4934214;29;1895;-29
2022/06/18 12:43:33;;;;;;;;;;;;;;;29.21;34.87;101042.06;4923855;29;1075;-31
2022/06/18 12:46:00;;;;;;;;;;;;;;;29.27;34.81;101047.75;4934587;29;969;-33
2022/06/18 12:48:28;;;;;;;;;;;;;;;29.23;34.52;101036.47;4936239;29;858;-28
2022/06/18 12:51:02;;;;;;;;;;;;;;;29.26;34.71;101030.66;4918972;29;1160;-29
2022/06/18 12:53:28;;;;;;;;;;;;;;;29.33;34.28;101033.44;4927237;29;981;-31
2022/06/18 12:55:53;;;;;;;;;;;;;;;29.27;34.45;101043.19;4929668;29;1024;-32
2022/06/18 12:58:25;;;;;;;;;;;;;;;29.27;34.62;101026.09;4927630;29;1052;-32
2022/06/18 13:01:02;;;;;;;;;;;;;;;29.31;34.47;101035.53;4917065;29;886;-30
2022/06/18 13:03:28;;;;;;;;;;;;;;;29.34;34.32;101029.72;4910995;29;1194;-31
2022/06/18 13:06:00;;;;;;;;;;;;;;;29.25;34.20;101028.97;4939744;29;906;-29